sensor_id;sensor_type;location;lat;lon;timestamp;P1;durP1;ratioP1;P2;durP2;ratioP2
42194;SDS011;27863;49.440;11.102;2023-12-28T00:01:47;2.73;;;2.53;;
42194;SDS011;27863;49.440;11.102;2023-12-28T00:04:51;2.87;;;2.57;;
42194;SDS011;27863;49.440;11.102;2023-12-28T00:07:53;3.57;;;2.53;;
42194;SDS011;27863;49.440;11.102;2023-12-28T00:10:58;2.93;;;2.67;;
42194;SDS011;27863;49.440;11.102;2023-12-28T00:13:59;3.33;;;2.67;;
42194;SDS011;27863;49.440;11.102;2023-12-28T00:17:01;3.37;;;3.07;;
42194;SDS011;27863;49.440;11.102;2023-12-28T00:20:01;2.40;;;2.10;;
42194;SDS011;27863;49.440;11.102;2023-12-28T00:23:01;2.17;;;1.97;;
42194;SDS011;27863;49.440;11.102;2023-12-28T00:26:02;3.63;;;3.33;;
42194;SDS011;27863;49.440;11.102;2023-12-28T00:29:03;2.93;;;2.47;;
42194;SDS011;27863;49.440;11.102;2023-12-28T00:32:04;6.50;;;2.60;;
42194;SDS011;27863;49.440;11.102;2023-12-28T00:35:06;3.20;;;2.90;;
42194;SDS011;27863;49.440;11.102;2023-12-28T00:38:07;3.17;;;2.53;;
42194;SDS011;27863;49.440;11.102;2023-12-28T00:41:08;3.07;;;2.60;;
42194;SDS011;27863;49.440;11.102;2023-12-28T00:44:08;2.57;;;2.37;;
42194;SDS011;27863;49.440;11.102;2023-12-28T00:47:09;2.73;;;2.53;;
42194;SDS011;27863;49.440;11.102;2023-12-28T00:50:11;3.03;;;2.70;;
42194;SDS011;27863;49.440;11.102;2023-12-28T00:53:12;2.30;;;2.10;;
42194;SDS011;27863;49.440;11.102;2023-12-28T00:56:12;3.20;;;2.83;;
42194;SDS011;27863;49.440;11.102;2023-12-28T00:59:13;2.70;;;2.40;;
42194;SDS011;27863;49.440;11.102;2023-12-28T01:02:14;2.23;;;2.10;;
42194;SDS011;27863;49.440;11.102;2023-12-28T01:05:14;2.20;;;2.00;;
42194;SDS011;27863;49.440;11.102;2023-12-28T01:08:16;2.33;;;2.10;;
42194;SDS011;27863;49.440;11.102;2023-12-28T01:11:18;2.40;;;2.20;;
42194;SDS011;27863;49.440;11.102;2023-12-28T01:14:20;4.33;;;2.77;;
42194;SDS011;27863;49.440;11.102;2023-12-28T01:17:20;3.10;;;2.20;;
42194;SDS011;27863;49.440;11.102;2023-12-28T01:20:21;3.80;;;2.30;;
42194;SDS011;27863;49.440;11.102;2023-12-28T01:23:21;4.57;;;2.33;;
42194;SDS011;27863;49.440;11.102;2023-12-28T01:26:22;2.80;;;2.43;;
42194;SDS011;27863;49.440;11.102;2023-12-28T01:29:22;2.37;;;2.10;;
42194;SDS011;27863;49.440;11.102;2023-12-28T01:32:23;4.00;;;3.70;;
42194;SDS011;27863;49.440;11.102;2023-12-28T01:35:23;3.17;;;2.13;;
42194;SDS011;27863;49.440;11.102;2023-12-28T01:38:24;2.40;;;2.20;;
42194;SDS011;27863;49.440;11.102;2023-12-28T01:41:24;3.17;;;2.17;;
42194;SDS011;27863;49.440;11.102;2023-12-28T01:44:26;2.73;;;2.40;;
42194;SDS011;27863;49.440;11.102;2023-12-28T01:47:26;2.27;;;2.07;;
42194;SDS011;27863;49.440;11.102;2023-12-28T01:50:28;2.37;;;2.00;;
42194;SDS011;27863;49.440;11.102;2023-12-28T01:53:29;2.57;;;2.30;;
42194;SDS011;27863;49.440;11.102;2023-12-28T01:56:29;2.43;;;2.23;;
42194;SDS011;27863;49.440;11.102;2023-12-28T01:59:30;3.00;;;2.30;;
42194;SDS011;27863;49.440;11.102;2023-12-28T02:02:31;2.60;;;2.30;;
42194;SDS011;27863;49.440;11.102;2023-12-28T02:05:32;2.60;;;2.40;;
42194;SDS011;27863;49.440;11.102;2023-12-28T02:08:33;2.40;;;2.20;;
42194;SDS011;27863;49.440;11.102;2023-12-28T02:11:34;3.30;;;2.53;;
42194;SDS011;27863;49.440;11.102;2023-12-28T02:14:34;3.13;;;2.30;;
42194;SDS011;27863;49.440;11.102;2023-12-28T02:17:43;3.30;;;2.20;;
42194;SDS011;27863;49.440;11.102;2023-12-28T02:20:51;2.17;;;2.07;;
42194;SDS011;27863;49.440;11.102;2023-12-28T02:23:51;2.67;;;2.20;;
42194;SDS011;27863;49.440;11.102;2023-12-28T02:26:52;4.33;;;2.50;;
42194;SDS011;27863;49.440;11.102;2023-12-28T02:29:52;3.23;;;2.93;;
42194;SDS011;27863;49.440;11.102;2023-12-28T02:35:57;2.90;;;2.20;;
42194;SDS011;27863;49.440;11.102;2023-12-28T02:39:00;2.57;;;2.37;;
42194;SDS011;27863;49.440;11.102;2023-12-28T02:42:05;2.30;;;2.10;;
42194;SDS011;27863;49.440;11.102;2023-12-28T02:45:06;2.80;;;2.07;;
42194;SDS011;27863;49.440;11.102;2023-12-28T02:48:06;3.77;;;2.07;;
42194;SDS011;27863;49.440;11.102;2023-12-28T02:51:07;2.57;;;2.37;;
42194;SDS011;27863;49.440;11.102;2023-12-28T02:54:08;2.00;;;1.80;;
42194;SDS011;27863;49.440;11.102;2023-12-28T02:57:08;2.20;;;2.00;;
42194;SDS011;27863;49.440;11.102;2023-12-28T03:00:09;2.70;;;2.27;;
42194;SDS011;27863;49.440;11.102;2023-12-28T03:03:11;1.87;;;1.77;;
42194;SDS011;27863;49.440;11.102;2023-12-28T03:06:11;2.50;;;2.13;;
42194;SDS011;27863;49.440;11.102;2023-12-28T03:09:11;2.70;;;2.10;;
42194;SDS011;27863;49.440;11.102;2023-12-28T03:12:12;2.23;;;1.97;;
42194;SDS011;27863;49.440;11.102;2023-12-28T03:15:13;2.30;;;1.93;;
42194;SDS011;27863;49.440;11.102;2023-12-28T03:18:13;2.90;;;2.60;;
42194;SDS011;27863;49.440;11.102;2023-12-28T03:21:14;1.93;;;1.80;;
42194;SDS011;27863;49.440;11.102;2023-12-28T03:24:15;2.63;;;2.30;;
42194;SDS011;27863;49.440;11.102;2023-12-28T03:27:15;2.07;;;1.90;;
42194;SDS011;27863;49.440;11.102;2023-12-28T03:30:15;5.50;;;2.40;;
42194;SDS011;27863;49.440;11.102;2023-12-28T03:33:16;2.10;;;1.80;;
42194;SDS011;27863;49.440;11.102;2023-12-28T03:36:19;2.03;;;1.90;;
42194;SDS011;27863;49.440;11.102;2023-12-28T03:39:20;2.17;;;1.97;;
42194;SDS011;27863;49.440;11.102;2023-12-28T03:42:21;2.27;;;2.07;;
42194;SDS011;27863;49.440;11.102;2023-12-28T03:45:22;2.40;;;2.20;;
42194;SDS011;27863;49.440;11.102;2023-12-28T03:48:23;2.40;;;2.20;;
42194;SDS011;27863;49.440;11.102;2023-12-28T03:51:24;2.00;;;1.80;;
42194;SDS011;27863;49.440;11.102;2023-12-28T03:54:26;3.40;;;2.20;;
42194;SDS011;27863;49.440;11.102;2023-12-28T03:57:27;2.33;;;2.07;;
42194;SDS011;27863;49.440;11.102;2023-12-28T04:00:28;2.00;;;1.90;;
42194;SDS011;27863;49.440;11.102;2023-12-28T04:03:29;3.97;;;2.67;;
42194;SDS011;27863;49.440;11.102;2023-12-28T04:06:29;2.43;;;1.93;;
42194;SDS011;27863;49.440;11.102;2023-12-28T04:09:32;2.63;;;2.37;;
42194;SDS011;27863;49.440;11.102;2023-12-28T04:12:32;2.10;;;1.90;;
42194;SDS011;27863;49.440;11.102;2023-12-28T04:15:33;2.50;;;2.30;;
42194;SDS011;27863;49.440;11.102;2023-12-28T04:18:33;2.33;;;2.13;;
42194;SDS011;27863;49.440;11.102;2023-12-28T04:21:34;2.20;;;2.00;;
42194;SDS011;27863;49.440;11.102;2023-12-28T04:24:36;3.83;;;2.30;;
42194;SDS011;27863;49.440;11.102;2023-12-28T04:27:37;3.10;;;2.10;;
42194;SDS011;27863;49.440;11.102;2023-12-28T04:30:38;2.13;;;1.90;;
42194;SDS011;27863;49.440;11.102;2023-12-28T04:33:39;2.60;;;2.03;;
42194;SDS011;27863;49.440;11.102;2023-12-28T04:36:43;4.80;;;2.67;;
42194;SDS011;27863;49.440;11.102;2023-12-28T04:39:44;2.60;;;2.40;;
42194;SDS011;27863;49.440;11.102;2023-12-28T04:42:45;2.60;;;2.40;;
42194;SDS011;27863;49.440;11.102;2023-12-28T04:45:45;3.13;;;2.93;;
42194;SDS011;27863;49.440;11.102;2023-12-28T04:48:46;2.70;;;2.30;;
42194;SDS011;27863;49.440;11.102;2023-12-28T04:51:47;3.10;;;2.80;;
42194;SDS011;27863;49.440;11.102;2023-12-28T04:54:47;2.87;;;2.63;;
42194;SDS011;27863;49.440;11.102;2023-12-28T04:57:48;1.93;;;1.83;;
42194;SDS011;27863;49.440;11.102;2023-12-28T05:00:48;2.40;;;1.87;;
42194;SDS011;27863;49.440;11.102;2023-12-28T05:03:51;2.60;;;2.27;;
42194;SDS011;27863;49.440;11.102;2023-12-28T05:06:54;2.50;;;2.17;;
42194;SDS011;27863;49.440;11.102;2023-12-28T05:09:55;2.40;;;2.13;;
42194;SDS011;27863;49.440;11.102;2023-12-28T05:12:55;7.47;;;2.23;;
42194;SDS011;27863;49.440;11.102;2023-12-28T05:15:56;2.37;;;2.13;;
42194;SDS011;27863;49.440;11.102;2023-12-28T05:18:56;2.90;;;2.13;;
42194;SDS011;27863;49.440;11.102;2023-12-28T05:21:57;2.43;;;2.23;;
42194;SDS011;27863;49.440;11.102;2023-12-28T05:24:57;3.43;;;2.50;;
42194;SDS011;27863;49.440;11.102;2023-12-28T05:27:58;2.30;;;2.10;;
42194;SDS011;27863;49.440;11.102;2023-12-28T05:30:58;3.33;;;2.37;;
42194;SDS011;27863;49.440;11.102;2023-12-28T05:34:01;2.70;;;2.50;;
42194;SDS011;27863;49.440;11.102;2023-12-28T05:37:02;2.47;;;2.20;;
42194;SDS011;27863;49.440;11.102;2023-12-28T05:40:03;2.20;;;2.10;;
42194;SDS011;27863;49.440;11.102;2023-12-28T05:43:03;2.10;;;2.00;;
42194;SDS011;27863;49.440;11.102;2023-12-28T05:46:04;2.73;;;2.30;;
42194;SDS011;27863;49.440;11.102;2023-12-28T05:49:04;2.70;;;1.97;;
42194;SDS011;27863;49.440;11.102;2023-12-28T05:52:05;1.90;;;1.70;;
42194;SDS011;27863;49.440;11.102;2023-12-28T05:55:06;2.37;;;2.00;;
42194;SDS011;27863;49.440;11.102;2023-12-28T05:58:06;2.67;;;2.40;;
42194;SDS011;27863;49.440;11.102;2023-12-28T06:01:07;3.87;;;2.70;;
42194;SDS011;27863;49.440;11.102;2023-12-28T06:04:07;3.33;;;2.50;;
42194;SDS011;27863;49.440;11.102;2023-12-28T06:07:08;2.50;;;1.83;;
42194;SDS011;27863;49.440;11.102;2023-12-28T06:10:08;2.90;;;2.60;;
42194;SDS011;27863;49.440;11.102;2023-12-28T06:13:09;2.20;;;2.10;;
42194;SDS011;27863;49.440;11.102;2023-12-28T06:16:10;2.87;;;2.57;;
42194;SDS011;27863;49.440;11.102;2023-12-28T06:19:10;2.30;;;2.00;;
42194;SDS011;27863;49.440;11.102;2023-12-28T06:22:12;2.23;;;2.03;;
42194;SDS011;27863;49.440;11.102;2023-12-28T06:25:13;1.93;;;1.73;;
42194;SDS011;27863;49.440;11.102;2023-12-28T06:28:13;3.03;;;2.03;;
42194;SDS011;27863;49.440;11.102;2023-12-28T06:31:14;3.63;;;2.77;;
42194;SDS011;27863;49.440;11.102;2023-12-28T06:34:14;3.30;;;2.67;;
42194;SDS011;27863;49.440;11.102;2023-12-28T06:37:15;2.53;;;2.33;;
42194;SDS011;27863;49.440;11.102;2023-12-28T06:40:16;2.87;;;2.50;;
42194;SDS011;27863;49.440;11.102;2023-12-28T06:43:16;2.43;;;2.23;;
42194;SDS011;27863;49.440;11.102;2023-12-28T06:46:17;6.90;;;2.27;;
42194;SDS011;27863;49.440;11.102;2023-12-28T06:49:19;3.67;;;2.70;;
42194;SDS011;27863;49.440;11.102;2023-12-28T06:52:19;2.57;;;2.20;;
42194;SDS011;27863;49.440;11.102;2023-12-28T06:55:20;2.10;;;1.90;;
42194;SDS011;27863;49.440;11.102;2023-12-28T06:58:20;3.07;;;2.73;;
42194;SDS011;27863;49.440;11.102;2023-12-28T07:01:21;2.83;;;2.50;;
42194;SDS011;27863;49.440;11.102;2023-12-28T07:04:21;2.97;;;2.07;;
42194;SDS011;27863;49.440;11.102;2023-12-28T07:07:25;2.43;;;2.00;;
42194;SDS011;27863;49.440;11.102;2023-12-28T07:10:26;2.33;;;2.13;;
42194;SDS011;27863;49.440;11.102;2023-12-28T07:13:27;2.43;;;2.20;;
42194;SDS011;27863;49.440;11.102;2023-12-28T07:16:27;2.20;;;2.00;;
42194;SDS011;27863;49.440;11.102;2023-12-28T07:19:28;2.17;;;2.03;;
42194;SDS011;27863;49.440;11.102;2023-12-28T07:22:28;2.17;;;1.97;;
42194;SDS011;27863;49.440;11.102;2023-12-28T07:25:29;2.33;;;2.20;;
42194;SDS011;27863;49.440;11.102;2023-12-28T07:28:29;2.77;;;2.57;;
42194;SDS011;27863;49.440;11.102;2023-12-28T07:31:30;2.27;;;2.07;;
42194;SDS011;27863;49.440;11.102;2023-12-28T07:34:32;3.07;;;2.50;;
42194;SDS011;27863;49.440;11.102;2023-12-28T07:37:33;2.80;;;2.50;;
42194;SDS011;27863;49.440;11.102;2023-12-28T07:40:33;2.80;;;2.07;;
42194;SDS011;27863;49.440;11.102;2023-12-28T07:43:34;3.37;;;2.53;;
42194;SDS011;27863;49.440;11.102;2023-12-28T07:46:34;2.93;;;2.20;;
42194;SDS011;27863;49.440;11.102;2023-12-28T07:49:36;2.73;;;2.50;;
42194;SDS011;27863;49.440;11.102;2023-12-28T07:52:36;2.57;;;2.20;;
42194;SDS011;27863;49.440;11.102;2023-12-28T07:55:37;2.10;;;1.90;;
42194;SDS011;27863;49.440;11.102;2023-12-28T07:58:38;3.03;;;2.73;;
42194;SDS011;27863;49.440;11.102;2023-12-28T08:01:39;3.10;;;2.50;;
42194;SDS011;27863;49.440;11.102;2023-12-28T08:04:40;3.20;;;2.37;;
42194;SDS011;27863;49.440;11.102;2023-12-28T08:07:40;3.13;;;2.57;;
42194;SDS011;27863;49.440;11.102;2023-12-28T08:10:40;2.47;;;2.03;;
42194;SDS011;27863;49.440;11.102;2023-12-28T08:13:41;3.00;;;2.40;;
42194;SDS011;27863;49.440;11.102;2023-12-28T08:16:42;2.97;;;2.33;;
42194;SDS011;27863;49.440;11.102;2023-12-28T08:19:42;3.87;;;2.40;;
42194;SDS011;27863;49.440;11.102;2023-12-28T08:22:43;2.53;;;1.93;;
42194;SDS011;27863;49.440;11.102;2023-12-28T08:25:44;2.67;;;2.47;;
42194;SDS011;27863;49.440;11.102;2023-12-28T08:28:44;2.77;;;2.47;;
42194;SDS011;27863;49.440;11.102;2023-12-28T08:31:45;4.03;;;2.53;;
42194;SDS011;27863;49.440;11.102;2023-12-28T08:34:46;3.77;;;2.40;;
42194;SDS011;27863;49.440;11.102;2023-12-28T08:37:47;2.90;;;2.13;;
42194;SDS011;27863;49.440;11.102;2023-12-28T08:40:48;2.40;;;2.20;;
42194;SDS011;27863;49.440;11.102;2023-12-28T08:43:51;2.30;;;1.90;;
42194;SDS011;27863;49.440;11.102;2023-12-28T08:46:54;2.77;;;2.23;;
42194;SDS011;27863;49.440;11.102;2023-12-28T08:49:54;2.80;;;2.33;;
42194;SDS011;27863;49.440;11.102;2023-12-28T08:52:55;2.90;;;2.23;;
42194;SDS011;27863;49.440;11.102;2023-12-28T08:55:55;3.07;;;2.43;;
42194;SDS011;27863;49.440;11.102;2023-12-28T08:58:57;1.83;;;1.73;;
42194;SDS011;27863;49.440;11.102;2023-12-28T09:01:58;2.50;;;2.30;;
42194;SDS011;27863;49.440;11.102;2023-12-28T09:04:58;2.27;;;2.13;;
42194;SDS011;27863;49.440;11.102;2023-12-28T09:07:59;2.40;;;2.20;;
42194;SDS011;27863;49.440;11.102;2023-12-28T09:10:59;5.43;;;2.17;;
42194;SDS011;27863;49.440;11.102;2023-12-28T09:14:00;2.90;;;2.57;;
42194;SDS011;27863;49.440;11.102;2023-12-28T09:17:01;2.50;;;2.30;;
42194;SDS011;27863;49.440;11.102;2023-12-28T09:20:02;3.03;;;2.27;;
42194;SDS011;27863;49.440;11.102;2023-12-28T09:23:03;3.07;;;2.50;;
42194;SDS011;27863;49.440;11.102;2023-12-28T09:26:04;2.20;;;1.97;;
42194;SDS011;27863;49.440;11.102;2023-12-28T09:29:05;3.00;;;2.67;;
42194;SDS011;27863;49.440;11.102;2023-12-28T09:32:07;2.50;;;2.30;;
42194;SDS011;27863;49.440;11.102;2023-12-28T09:35:08;2.50;;;2.30;;
42194;SDS011;27863;49.440;11.102;2023-12-28T09:38:08;2.53;;;2.30;;
42194;SDS011;27863;49.440;11.102;2023-12-28T09:41:12;2.77;;;2.50;;
42194;SDS011;27863;49.440;11.102;2023-12-28T09:44:15;2.83;;;2.63;;
42194;SDS011;27863;49.440;11.102;2023-12-28T09:47:16;4.23;;;2.90;;
42194;SDS011;27863;49.440;11.102;2023-12-28T09:50:17;3.70;;;3.10;;
42194;SDS011;27863;49.440;11.102;2023-12-28T09:53:20;4.50;;;2.63;;
42194;SDS011;27863;49.440;11.102;2023-12-28T09:56:24;4.30;;;2.80;;
42194;SDS011;27863;49.440;11.102;2023-12-28T09:59:25;3.90;;;2.77;;
42194;SDS011;27863;49.440;11.102;2023-12-28T10:02:27;2.93;;;2.30;;
42194;SDS011;27863;49.440;11.102;2023-12-28T10:05:27;3.23;;;2.30;;
42194;SDS011;27863;49.440;11.102;2023-12-28T10:08:28;4.43;;;2.37;;
42194;SDS011;27863;49.440;11.102;2023-12-28T10:11:29;4.37;;;2.60;;
42194;SDS011;27863;49.440;11.102;2023-12-28T10:14:29;3.33;;;2.50;;
42194;SDS011;27863;49.440;11.102;2023-12-28T10:17:34;3.00;;;2.80;;
42194;SDS011;27863;49.440;11.102;2023-12-28T10:20:38;3.23;;;2.90;;
42194;SDS011;27863;49.440;11.102;2023-12-28T10:23:38;3.00;;;2.47;;
42194;SDS011;27863;49.440;11.102;2023-12-28T10:26:39;2.47;;;2.27;;
42194;SDS011;27863;49.440;11.102;2023-12-28T10:29:40;2.83;;;2.63;;
42194;SDS011;27863;49.440;11.102;2023-12-28T10:32:41;2.57;;;2.37;;
42194;SDS011;27863;49.440;11.102;2023-12-28T10:35:43;3.03;;;2.40;;
42194;SDS011;27863;49.440;11.102;2023-12-28T10:38:44;3.87;;;2.50;;
42194;SDS011;27863;49.440;11.102;2023-12-28T10:41:46;6.93;;;2.70;;
42194;SDS011;27863;49.440;11.102;2023-12-28T10:44:49;2.90;;;2.60;;
42194;SDS011;27863;49.440;11.102;2023-12-28T10:47:54;4.03;;;2.50;;
42194;SDS011;27863;49.440;11.102;2023-12-28T10:51:01;3.17;;;2.87;;
42194;SDS011;27863;49.440;11.102;2023-12-28T10:57:23;4.17;;;2.77;;
42194;SDS011;27863;49.440;11.102;2023-12-28T11:00:30;3.73;;;3.07;;
42194;SDS011;27863;49.440;11.102;2023-12-28T11:03:34;3.50;;;2.80;;
42194;SDS011;27863;49.440;11.102;2023-12-28T11:06:36;3.80;;;3.17;;
42194;SDS011;27863;49.440;11.102;2023-12-28T11:09:38;4.00;;;2.90;;
42194;SDS011;27863;49.440;11.102;2023-12-28T11:12:42;2.97;;;2.67;;
42194;SDS011;27863;49.440;11.102;2023-12-28T11:15:44;3.00;;;2.77;;
42194;SDS011;27863;49.440;11.102;2023-12-28T11:18:47;4.47;;;3.33;;
42194;SDS011;27863;49.440;11.102;2023-12-28T11:21:50;2.97;;;2.50;;
42194;SDS011;27863;49.440;11.102;2023-12-28T11:24:54;6.63;;;2.73;;
42194;SDS011;27863;49.440;11.102;2023-12-28T11:27:56;3.37;;;3.07;;
42194;SDS011;27863;49.440;11.102;2023-12-28T11:30:56;4.37;;;3.10;;
42194;SDS011;27863;49.440;11.102;2023-12-28T11:33:58;3.37;;;2.70;;
42194;SDS011;27863;49.440;11.102;2023-12-28T11:37:09;4.73;;;3.00;;
42194;SDS011;27863;49.440;11.102;2023-12-28T11:40:13;2.63;;;2.43;;
42194;SDS011;27863;49.440;11.102;2023-12-28T11:43:19;3.33;;;3.03;;
42194;SDS011;27863;49.440;11.102;2023-12-28T11:46:21;3.50;;;2.70;;
42194;SDS011;27863;49.440;11.102;2023-12-28T11:49:25;3.67;;;2.97;;
42194;SDS011;27863;49.440;11.102;2023-12-28T11:52:30;3.47;;;3.17;;
42194;SDS011;27863;49.440;11.102;2023-12-28T11:55:31;3.27;;;2.57;;
42194;SDS011;27863;49.440;11.102;2023-12-28T11:58:32;4.87;;;2.70;;
42194;SDS011;27863;49.440;11.102;2023-12-28T12:01:34;2.60;;;2.40;;
42194;SDS011;27863;49.440;11.102;2023-12-28T12:04:34;3.23;;;2.57;;
42194;SDS011;27863;49.440;11.102;2023-12-28T12:07:35;3.00;;;2.70;;
42194;SDS011;27863;49.440;11.102;2023-12-28T12:10:36;3.00;;;2.67;;
42194;SDS011;27863;49.440;11.102;2023-12-28T12:13:38;3.07;;;2.87;;
42194;SDS011;27863;49.440;11.102;2023-12-28T12:16:38;3.03;;;2.40;;
42194;SDS011;27863;49.440;11.102;2023-12-28T12:19:39;3.77;;;3.00;;
42194;SDS011;27863;49.440;11.102;2023-12-28T12:22:40;3.00;;;2.33;;
42194;SDS011;27863;49.440;11.102;2023-12-28T12:25:40;3.83;;;3.07;;
42194;SDS011;27863;49.440;11.102;2023-12-28T12:28:41;2.47;;;2.27;;
42194;SDS011;27863;49.440;11.102;2023-12-28T12:31:41;3.27;;;2.73;;
42194;SDS011;27863;49.440;11.102;2023-12-28T12:34:43;3.93;;;2.67;;
42194;SDS011;27863;49.440;11.102;2023-12-28T12:37:43;3.07;;;2.67;;
42194;SDS011;27863;49.440;11.102;2023-12-28T12:40:46;5.70;;;2.37;;
42194;SDS011;27863;49.440;11.102;2023-12-28T12:43:47;2.43;;;2.07;;
42194;SDS011;27863;49.440;11.102;2023-12-28T12:46:47;2.50;;;2.30;;
42194;SDS011;27863;49.440;11.102;2023-12-28T12:49:48;2.77;;;2.57;;
42194;SDS011;27863;49.440;11.102;2023-12-28T12:52:51;3.30;;;3.00;;
42194;SDS011;27863;49.440;11.102;2023-12-28T12:55:54;3.07;;;2.73;;
42194;SDS011;27863;49.440;11.102;2023-12-28T12:58:58;3.27;;;2.70;;
42194;SDS011;27863;49.440;11.102;2023-12-28T13:02:00;4.13;;;3.50;;
42194;SDS011;27863;49.440;11.102;2023-12-28T13:05:00;3.87;;;2.93;;
42194;SDS011;27863;49.440;11.102;2023-12-28T13:08:01;3.23;;;2.93;;
42194;SDS011;27863;49.440;11.102;2023-12-28T13:11:02;3.03;;;2.73;;
42194;SDS011;27863;49.440;11.102;2023-12-28T13:14:03;4.60;;;3.60;;
42194;SDS011;27863;49.440;11.102;2023-12-28T13:17:04;4.77;;;3.80;;
42194;SDS011;27863;49.440;11.102;2023-12-28T13:20:05;4.63;;;3.63;;
42194;SDS011;27863;49.440;11.102;2023-12-28T13:23:08;9.50;;;3.20;;
42194;SDS011;27863;49.440;11.102;2023-12-28T13:26:09;3.30;;;2.97;;
42194;SDS011;27863;49.440;11.102;2023-12-28T13:29:10;4.47;;;3.60;;
42194;SDS011;27863;49.440;11.102;2023-12-28T13:32:10;3.27;;;2.80;;
42194;SDS011;27863;49.440;11.102;2023-12-28T13:35:11;2.90;;;2.70;;
42194;SDS011;27863;49.440;11.102;2023-12-28T13:38:11;3.73;;;3.43;;
42194;SDS011;27863;49.440;11.102;2023-12-28T13:41:12;3.43;;;3.13;;
42194;SDS011;27863;49.440;11.102;2023-12-28T13:44:13;3.20;;;2.63;;
42194;SDS011;27863;49.440;11.102;2023-12-28T13:47:14;2.33;;;2.10;;
42194;SDS011;27863;49.440;11.102;2023-12-28T13:50:16;3.07;;;2.77;;
42194;SDS011;27863;49.440;11.102;2023-12-28T13:53:16;3.40;;;2.43;;
42194;SDS011;27863;49.440;11.102;2023-12-28T13:56:17;3.30;;;2.80;;
42194;SDS011;27863;49.440;11.102;2023-12-28T13:59:17;4.53;;;3.63;;
42194;SDS011;27863;49.440;11.102;2023-12-28T14:02:17;5.40;;;3.80;;
42194;SDS011;27863;49.440;11.102;2023-12-28T14:05:18;4.17;;;3.77;;
42194;SDS011;27863;49.440;11.102;2023-12-28T14:08:19;3.73;;;2.93;;
42194;SDS011;27863;49.440;11.102;2023-12-28T14:11:19;4.37;;;3.63;;
42194;SDS011;27863;49.440;11.102;2023-12-28T14:14:20;5.07;;;3.43;;
42194;SDS011;27863;49.440;11.102;2023-12-28T14:17:21;6.03;;;3.17;;
42194;SDS011;27863;49.440;11.102;2023-12-28T14:20:22;4.50;;;3.10;;
42194;SDS011;27863;49.440;11.102;2023-12-28T14:23:23;3.90;;;3.50;;
42194;SDS011;27863;49.440;11.102;2023-12-28T14:26:24;5.67;;;3.60;;
42194;SDS011;27863;49.440;11.102;2023-12-28T14:29:25;4.57;;;3.30;;
42194;SDS011;27863;49.440;11.102;2023-12-28T14:32:30;4.70;;;2.90;;
42194;SDS011;27863;49.440;11.102;2023-12-28T14:35:30;4.10;;;3.70;;
42194;SDS011;27863;49.440;11.102;2023-12-28T14:38:31;4.20;;;3.80;;
42194;SDS011;27863;49.440;11.102;2023-12-28T14:41:35;4.53;;;4.10;;
42194;SDS011;27863;49.440;11.102;2023-12-28T14:44:36;5.43;;;4.57;;
42194;SDS011;27863;49.440;11.102;2023-12-28T14:47:36;4.63;;;4.23;;
42194;SDS011;27863;49.440;11.102;2023-12-28T14:50:37;3.60;;;3.30;;
42194;SDS011;27863;49.440;11.102;2023-12-28T14:53:37;5.13;;;3.80;;
42194;SDS011;27863;49.440;11.102;2023-12-28T14:56:38;5.00;;;3.43;;
42194;SDS011;27863;49.440;11.102;2023-12-28T14:59:38;4.47;;;3.83;;
42194;SDS011;27863;49.440;11.102;2023-12-28T15:02:39;4.83;;;3.47;;
42194;SDS011;27863;49.440;11.102;2023-12-28T15:05:39;6.97;;;3.57;;
42194;SDS011;27863;49.440;11.102;2023-12-28T15:08:40;3.50;;;3.20;;
42194;SDS011;27863;49.440;11.102;2023-12-28T15:11:40;3.57;;;3.23;;
42194;SDS011;27863;49.440;11.102;2023-12-28T15:14:41;3.13;;;2.83;;
42194;SDS011;27863;49.440;11.102;2023-12-28T15:17:42;8.70;;;3.90;;
42194;SDS011;27863;49.440;11.102;2023-12-28T15:20:46;3.73;;;3.03;;
42194;SDS011;27863;49.440;11.102;2023-12-28T15:23:47;4.60;;;3.87;;
42194;SDS011;27863;49.440;11.102;2023-12-28T15:26:49;4.70;;;3.93;;
42194;SDS011;27863;49.440;11.102;2023-12-28T15:29:50;3.57;;;3.27;;
42194;SDS011;27863;49.440;11.102;2023-12-28T15:32:51;3.63;;;3.33;;
42194;SDS011;27863;49.440;11.102;2023-12-28T15:35:52;4.00;;;3.57;;
42194;SDS011;27863;49.440;11.102;2023-12-28T15:38:53;4.43;;;3.13;;
42194;SDS011;27863;49.440;11.102;2023-12-28T15:41:54;3.27;;;3.00;;
42194;SDS011;27863;49.440;11.102;2023-12-28T15:44:54;3.53;;;2.90;;
42194;SDS011;27863;49.440;11.102;2023-12-28T15:47:55;4.13;;;3.13;;
42194;SDS011;27863;49.440;11.102;2023-12-28T15:50:56;4.53;;;3.30;;
42194;SDS011;27863;49.440;11.102;2023-12-28T15:53:58;4.00;;;3.10;;
42194;SDS011;27863;49.440;11.102;2023-12-28T15:56:58;3.10;;;2.80;;
42194;SDS011;27863;49.440;11.102;2023-12-28T15:59:59;4.53;;;3.77;;
42194;SDS011;27863;49.440;11.102;2023-12-28T16:03:01;4.00;;;3.57;;
42194;SDS011;27863;49.440;11.102;2023-12-28T16:06:01;3.80;;;3.50;;
42194;SDS011;27863;49.440;11.102;2023-12-28T16:09:02;3.27;;;3.07;;
42194;SDS011;27863;49.440;11.102;2023-12-28T16:12:05;4.13;;;3.43;;
42194;SDS011;27863;49.440;11.102;2023-12-28T16:15:08;3.70;;;3.37;;
42194;SDS011;27863;49.440;11.102;2023-12-28T16:18:11;3.30;;;3.00;;
42194;SDS011;27863;49.440;11.102;2023-12-28T16:21:12;3.60;;;2.53;;
42194;SDS011;27863;49.440;11.102;2023-12-28T16:24:15;3.67;;;2.87;;
42194;SDS011;27863;49.440;11.102;2023-12-28T16:27:16;3.90;;;3.00;;
42194;SDS011;27863;49.440;11.102;2023-12-28T16:30:17;3.70;;;3.40;;
42194;SDS011;27863;49.440;11.102;2023-12-28T16:33:17;4.83;;;2.97;;
42194;SDS011;27863;49.440;11.102;2023-12-28T16:36:18;4.80;;;4.27;;
42194;SDS011;27863;49.440;11.102;2023-12-28T16:39:19;4.90;;;3.80;;
42194;SDS011;27863;49.440;11.102;2023-12-28T16:42:19;4.47;;;4.07;;
42194;SDS011;27863;49.440;11.102;2023-12-28T16:45:20;3.97;;;3.23;;
42194;SDS011;27863;49.440;11.102;2023-12-28T16:48:20;4.93;;;4.47;;
42194;SDS011;27863;49.440;11.102;2023-12-28T16:51:21;4.10;;;3.70;;
42194;SDS011;27863;49.440;11.102;2023-12-28T16:54:22;4.10;;;3.60;;
42194;SDS011;27863;49.440;11.102;2023-12-28T16:57:23;4.73;;;3.90;;
42194;SDS011;27863;49.440;11.102;2023-12-28T17:00:25;5.37;;;4.80;;
42194;SDS011;27863;49.440;11.102;2023-12-28T17:03:28;4.33;;;3.93;;
42194;SDS011;27863;49.440;11.102;2023-12-28T17:06:28;5.37;;;4.20;;
42194;SDS011;27863;49.440;11.102;2023-12-28T17:09:29;5.57;;;4.90;;
42194;SDS011;27863;49.440;11.102;2023-12-28T17:12:39;6.17;;;5.47;;
42194;SDS011;27863;49.440;11.102;2023-12-28T17:15:44;6.47;;;5.87;;
42194;SDS011;27863;49.440;11.102;2023-12-28T17:18:45;6.40;;;5.30;;
42194;SDS011;27863;49.440;11.102;2023-12-28T17:21:46;5.80;;;5.10;;
42194;SDS011;27863;49.440;11.102;2023-12-28T17:24:49;8.87;;;7.30;;
42194;SDS011;27863;49.440;11.102;2023-12-28T17:27:56;5.10;;;4.60;;
42194;SDS011;27863;49.440;11.102;2023-12-28T17:31:02;5.50;;;5.00;;
42194;SDS011;27863;49.440;11.102;2023-12-28T17:34:04;5.93;;;5.43;;
42194;SDS011;27863;49.440;11.102;2023-12-28T17:37:08;8.27;;;6.70;;
42194;SDS011;27863;49.440;11.102;2023-12-28T17:40:09;8.63;;;7.60;;
42194;SDS011;27863;49.440;11.102;2023-12-28T17:43:20;6.00;;;5.50;;
42194;SDS011;27863;49.440;11.102;2023-12-28T17:46:46;5.60;;;5.10;;
42194;SDS011;27863;49.440;11.102;2023-12-28T17:49:50;5.43;;;4.93;;
42194;SDS011;27863;49.440;11.102;2023-12-28T17:52:50;6.30;;;5.77;;
42194;SDS011;27863;49.440;11.102;2023-12-28T17:55:52;6.67;;;5.97;;
42194;SDS011;27863;49.440;11.102;2023-12-28T17:58:54;6.13;;;5.53;;
42194;SDS011;27863;49.440;11.102;2023-12-28T18:01:55;6.17;;;5.30;;